Flight Track Log - Related Links

Times and Time Zones

All times are in EDT time to prevent confusion due to time zone crossing. See the UAL1197 flight status page for this flight to view local times or setup timezone preferences in your user account.

Time Position Orientation Groundspeed Altitude Reporting Facility
EDT Latitude Longitude Course Direction KTS MPH feet Rate Location/Type
Sun 08:07:48 PM 29.5178 -98.4572 90° East 147 169 1,800  Level Houston Center
Sun 08:08:25 PM 29.4942 -98.4289 134° Southeast 191 220 3,200 2,368 Climbing Houston Center
Sun 08:09:04 PM 29.4869 -98.3936 103° East 222 255 4,800 3,420 Climbing Houston Center
Sun 08:10:00 PM 29.5838 -98.2316 74° East  Level FlightAware Approximate
Sun 08:10:05 PM 29.5186 -98.3017 68° East 271 312 8,900  Level Houston Center
Sun 08:11:00 PM 29.6033 -98.1536 74° East  Level FlightAware Approximate
Sun 08:11:07 PM 29.5439 -98.2125 72° East 293 337 11,800  Level Houston Center
Sun 08:12:00 PM 29.6228 -98.0757 74° East  Level FlightAware Approximate
Sun 08:12:09 PM 29.5456 -98.1058 89° East 347 399 15,300  Level Houston Center
Sun 08:13:00 PM 29.6500 -98.0050 90° East  Level FlightAware Approximate
Sun 08:13:10 PM 29.5467 -97.9872 89° East 340 391 18,100  Level Houston Center
Sun 08:14:12 PM 29.5472 -97.8581 90° East 402 463 20,400 2,244 Climbing Houston Center
Sun 08:15:13 PM 29.5481 -97.7283 90° East 418 481 22,700 1,220 Climbing Houston Center
Sun 08:16:15 PM 29.5486 -97.5908 90° East 427 491 22,900 146 Climbing Houston Center
Sun 08:17:16 PM 29.5486 -97.4539 90° East 429 494 23,000 49 Climbing Houston Center
Sun 08:18:18 PM 29.5489 -97.3158 90° East 431 496 23,000  Level Houston Center
Sun 08:19:19 PM 29.5489 -97.1786 90° East 429 494 23,000 -49 Level Houston Center
Sun 08:20:21 PM 29.5492 -97.0400 90° East 431 496 22,900 -98 Descending Houston Center
Sun 08:21:22 PM 29.5492 -96.9000 90° East 432 497 22,800 -585 Descending Houston Center
Sun 08:22:24 PM 29.5481 -96.7625 90° East 424 488 21,700 -1,366 Descending Houston Center
Sun 08:23:25 PM 29.5481 -96.6028 90° East 414 476 20,000 -2,000 Descending Houston Center
Sun 08:24:27 PM 29.5467 -96.4767 91° East 398 458 17,600 -2,371 Descending Houston Center
Sun 08:25:29 PM 29.5464 -96.3531 90° East 387 445 15,100 -2,341 Descending Houston Center
Sun 08:26:30 PM 29.5456 -96.2350 90° East 373 429 12,800 -1,512 Descending Houston Center
Sun 08:27:32 PM 29.5636 -96.1297 79° East 339 390 12,000 -390 Descending Houston Center
Sun 08:28:33 PM 29.6083 -96.0403 60° Northeast 326 375 12,000  Level Houston Center
Sun 08:28:50 PM 29.6283 -96.0061 56° Northeast 328 377 12,000  Level Houston Center
Sun 08:29:35 PM 29.6614 -95.9372 61° Northeast 328 377 12,000 -295 Level Houston Center
Sun 08:29:51 PM 29.6747 -95.9119 59° Northeast 329 379 11,700 -984 Descending Houston Center
Sun 08:30:36 PM 29.7075 -95.8450 61° Northeast 332 382 11,000 -873 Descending Houston Center
Sun 08:31:41 PM 29.7567 -95.7483 60° Northeast 307 353 10,100 -1,122 Descending Houston Center
Sun 08:32:39 PM 29.7944 -95.6722 60° Northeast 302 348 8,700 -1,400 Descending Houston Center
Sun 08:33:41 PM 29.8358 -95.5875 61° Northeast 301 346 7,300 -1,317 Descending Houston Center
Sun 08:34:42 PM 29.8758 -95.5083 60° Northeast 289 333 6,000 -634 Descending Houston Center
Sun 08:35:44 PM 29.8961 -95.4267 74° East 272 313 6,000  Level Houston Center
Sun 08:36:46 PM 29.8958 -95.3347 90° East 232 267 6,000  Level Houston Center
Sun 08:37:47 PM 29.8969 -95.2703 89° East 236 272 6,000 -585 Level Houston Center
Sun 08:38:49 PM 29.8967 -95.1942 90° East 236 272 4,800 -1,610 Descending Houston Center
Sun 08:39:50 PM 29.9064 -95.1086 83° East 239 275 2,700 -1,388 Descending Houston Center
Sun 08:40:50 PM 29.9558 -95.1200 349° North 192 221 2,000 -700 Descending Houston Center

Login

Don't have an account? Register now (free) for customized features, flight alerts, and more!